Time;durP1;ratioP1;P1;durP2;ratioP2;P2;SDS_P1;SDS_P2;PMS_P1;PMS_P2;Temp;Humidity;BMP_temperature;BMP_pressure;BME280_temperature;BME280_humidity;BME280_pressure;Samples;Min_cycle;Max_cycle;Signal;HPM_P1;HPM_P2
2020/12/31 00:00:24;;;;;;;7.30;4.33;;;;;;;0.82;100.00;100346.14;1777115;78;21622;-72
2020/12/31 00:02:51;;;;;;;5.00;3.13;;;;;;;0.80;100.00;100351.55;1774280;78;21123;-72
2020/12/31 00:05:19;;;;;;;2.20;2.00;;;;;;;0.78;100.00;100347.27;1791276;78;21159;-71
2020/12/31 00:07:47;;;;;;;3.70;2.70;;;;;;;0.75;100.00;100341.20;1777042;79;21033;-72
2020/12/31 00:10:15;;;;;;;9.07;4.00;;;;;;;0.74;100.00;100342.17;1806367;78;21812;-71
2020/12/31 00:12:43;;;;;;;7.13;4.27;;;;;;;0.72;100.00;100337.88;1809828;78;21563;-72
2020/12/31 00:15:12;;;;;;;8.03;3.97;;;;;;;0.69;100.00;100343.41;1804856;78;21115;-72
2020/12/31 00:17:40;;;;;;;5.27;3.27;;;;;;;0.67;100.00;100342.16;1791545;78;21552;-72
2020/12/31 00:20:08;;;;;;;3.93;3.00;;;;;;;0.65;100.00;100338.75;1786728;78;20984;-72
2020/12/31 00:22:36;;;;;;;3.03;2.47;;;;;;;0.64;100.00;100342.39;1781598;78;21494;-72
2020/12/31 00:25:06;;;;;;;3.87;3.13;;;;;;;0.64;100.00;100341.06;1772621;78;21477;-72
2020/12/31 00:27:34;;;;;;;8.17;3.63;;;;;;;0.66;100.00;100342.30;1811238;79;21042;-72
2020/12/31 00:30:09;;;;;;;5.73;3.37;;;;;;;0.65;100.00;100341.91;1810252;78;21066;-72
2020/12/31 00:32:37;;;;;;;5.07;2.47;;;;;;;0.64;100.00;100345.05;1716206;82;21653;-72
2020/12/31 00:35:05;;;;;;;5.30;2.90;;;;;;;0.62;100.00;100340.31;1720116;82;21298;-72
2020/12/31 00:37:35;;;;;;;4.10;2.97;;;;;;;0.62;100.00;100331.00;1724732;82;21545;-72
2020/12/31 00:40:04;;;;;;;4.53;2.43;;;;;;;0.64;100.00;100340.18;1708049;82;21052;-72
2020/12/31 00:42:32;;;;;;;5.90;2.60;;;;;;;0.67;100.00;100339.99;1734194;81;21154;-72
2020/12/31 00:45:00;;;;;;;5.43;3.40;;;;;;;0.70;100.00;100342.45;1719783;82;21495;-71
2020/12/31 00:47:28;;;;;;;7.47;3.77;;;;;;;0.71;100.00;100341.03;1720900;81;21034;-71
2020/12/31 00:49:56;;;;;;;9.50;4.67;;;;;;;0.72;100.00;100333.89;1723261;82;20998;-71
2020/12/31 00:52:24;;;;;;;4.77;3.20;;;;;;;0.74;100.00;100336.84;1724211;82;21079;-72
2020/12/31 00:54:51;;;;;;;5.37;3.87;;;;;;;0.75;100.00;100337.69;1689119;83;21140;-72
2020/12/31 00:57:19;;;;;;;5.43;2.93;;;;;;;0.74;100.00;100332.86;1725301;82;21797;-72
2020/12/31 00:59:47;;;;;;;4.33;3.37;;;;;;;0.74;100.00;100340.84;1729078;82;22695;-72
2020/12/31 01:02:15;;;;;;;5.63;3.17;;;;;;;0.71;100.00;100331.72;1728474;83;20930;-72
2020/12/31 01:04:43;;;;;;;6.47;3.23;;;;;;;0.69;100.00;100334.96;1738612;81;21178;-72
2020/12/31 01:07:16;;;;;;;8.53;3.73;;;;;;;0.68;100.00;100343.05;1740431;81;21167;-72
2020/12/31 01:09:44;;;;;;;4.30;2.73;;;;;;;0.66;100.00;100342.30;1723152;81;20950;-72
2020/12/31 01:12:11;;;;;;;3.97;2.90;;;;;;;0.62;100.00;100340.31;1738573;81;22133;-72
2020/12/31 01:14:39;;;;;;;4.47;2.60;;;;;;;0.59;100.00;100337.84;1743848;81;21124;-72
2020/12/31 01:17:07;;;;;;;6.00;3.20;;;;;;;0.54;100.00;100331.47;1730403;81;20950;-73
2020/12/31 01:19:37;;;;;;;4.60;2.83;;;;;;;0.51;100.00;100320.17;1735022;81;21018;-72
2020/12/31 01:22:04;;;;;;;5.60;3.67;;;;;;;0.45;100.00;100316.11;1732517;81;20955;-71
2020/12/31 01:24:32;;;;;;;2.43;2.20;;;;;;;0.39;100.00;100309.88;1732833;81;22250;-71
2020/12/31 01:27:02;;;;;;;4.93;2.50;;;;;;;0.34;100.00;100304.00;1747127;80;21163;-71
2020/12/31 01:29:30;;;;;;;2.93;2.13;;;;;;;0.30;100.00;100299.80;1779412;78;21230;-71
2020/12/31 01:31:58;;;;;;;3.90;2.60;;;;;;;0.26;100.00;100300.97;1808725;79;21033;-71
2020/12/31 01:34:26;;;;;;;4.83;3.23;;;;;;;0.20;100.00;100303.55;1809509;78;21017;-72
2020/12/31 01:36:54;;;;;;;2.23;1.87;;;;;;;0.15;100.00;100305.64;1820620;77;21193;-71
2020/12/31 01:39:22;;;;;;;9.33;3.23;;;;;;;0.10;100.00;100297.11;1826173;77;21028;-72
2020/12/31 01:41:50;;;;;;;4.37;3.17;;;;;;;0.07;100.00;100299.50;1822927;77;21131;-72
2020/12/31 01:44:18;;;;;;;6.00;3.10;;;;;;;0.03;100.00;100301.95;1835241;77;21008;-71
2020/12/31 01:46:48;;;;;;;5.40;3.77;;;;;;;0.02;100.00;100295.39;1821105;77;21090;-71
2020/12/31 01:49:19;;;;;;;2.37;2.00;;;;;;;-0.02;100.00;100299.60;1816194;77;21197;-72
2020/12/31 01:51:47;;;;;;;6.40;3.50;;;;;;;-0.02;100.00;100304.05;1808315;78;21124;-70
2020/12/31 01:54:16;;;;;;;7.00;3.77;;;;;;;-0.02;100.00;100311.56;1805502;78;20954;-71
2020/12/31 01:56:45;;;;;;;4.97;3.03;;;;;;;-0.02;100.00;100336.83;1797271;79;20970;-71
2020/12/31 01:59:13;;;;;;;6.23;2.90;;;;;;;-0.02;100.00;100342.59;1781704;78;20997;-70
2020/12/31 02:01:41;;;;;;;5.43;3.27;;;;;;;-0.03;100.00;100331.59;1809361;78;21192;-71
2020/12/31 02:04:09;;;;;;;4.10;2.50;;;;;;;-0.05;100.00;100319.73;1808362;78;21281;-71
2020/12/31 02:06:37;;;;;;;4.63;2.80;;;;;;;-0.06;100.00;100323.80;1804093;78;21609;-72
2020/12/31 02:09:05;;;;;;;6.20;3.83;;;;;;;-0.08;100.00;100320.39;1807375;78;20933;-72
2020/12/31 02:11:33;;;;;;;2.70;2.30;;;;;;;-0.08;100.00;100328.37;1801835;78;20980;-72
2020/12/31 02:14:01;;;;;;;4.83;3.27;;;;;;;-0.07;100.00;100335.37;1802522;79;22016;-72
2020/12/31 02:16:31;;;;;;;4.00;3.33;;;;;;;-0.07;100.00;100323.41;1798952;77;20958;-72
2020/12/31 02:19:08;;;;;;;3.70;2.70;;;;;;;-0.08;100.00;100317.25;1767434;80;21163;-72
2020/12/31 02:21:37;;;;;;;4.33;2.73;;;;;;;-0.08;100.00;100328.37;1767379;80;20937;-71
2020/12/31 02:24:07;;;;;;;2.53;1.90;;;;;;;-0.10;100.00;100339.09;1795918;78;21564;-72
2020/12/31 02:26:37;;;;;;;6.17;3.17;;;;;;;-0.10;100.00;100327.13;1784689;77;21408;-72
2020/12/31 02:29:06;;;;;;;3.07;2.53;;;;;;;-0.08;100.00;100324.38;1771303;80;21192;-71
2020/12/31 02:31:34;;;;;;;6.97;3.30;;;;;;;-0.10;100.00;100325.80;1771181;80;20977;-71
2020/12/31 02:34:02;;;;;;;3.83;2.83;;;;;;;-0.09;100.00;100326.65;1767398;80;21291;-72
2020/12/31 02:36:32;;;;;;;6.37;3.63;;;;;;;-0.10;100.00;100347.55;1766384;80;21228;-71
2020/12/31 02:39:04;;;;;;;7.27;3.40;;;;;;;-0.12;100.00;100351.63;1761727;80;21374;-71
2020/12/31 02:41:32;;;;;;;4.47;2.63;;;;;;;-0.13;100.00;100350.39;1781174;79;21544;-71
2020/12/31 02:44:00;;;;;;;5.17;3.20;;;;;;;-0.12;100.00;100330.84;1757819;80;21177;-71
2020/12/31 02:46:28;;;;;;;5.47;3.10;;;;;;;-0.12;100.00;100329.52;1772595;80;21143;-71
2020/12/31 02:48:55;;;;;;;5.63;2.73;;;;;;;-0.13;100.00;100329.97;1765681;80;21210;-71
2020/12/31 02:51:23;;;;;;;4.73;2.60;;;;;;;-0.10;100.00;100332.94;1768373;80;21143;-71
2020/12/31 02:53:51;;;;;;;2.23;1.70;;;;;;;-0.11;100.00;100332.05;1780715;79;21071;-70
2020/12/31 02:56:21;;;;;;;3.23;2.23;;;;;;;-0.09;100.00;100330.19;1785043;78;21025;-71
2020/12/31 02:58:48;;;;;;;7.13;3.00;;;;;;;-0.08;100.00;100350.97;1800245;78;21058;-71
2020/12/31 03:01:17;;;;;;;4.43;3.00;;;;;;;-0.08;100.00;100351.81;1789741;79;21560;-71
2020/12/31 03:03:44;;;;;;;3.93;2.80;;;;;;;-0.08;100.00;100350.48;1752234;80;21255;-70
2020/12/31 03:06:12;;;;;;;3.07;2.17;;;;;;;-0.07;100.00;100328.73;1769247;80;21251;-71
2020/12/31 03:08:40;;;;;;;5.70;3.87;;;;;;;-0.08;100.00;100319.06;1764877;80;21238;-71
2020/12/31 03:11:18;;;;;;;4.30;2.67;;;;;;;-0.07;100.00;100329.61;1795645;78;21097;-71
2020/12/31 03:13:47;;;;;;;7.43;3.23;;;;;;;-0.04;100.00;100322.75;1799722;79;20966;-71
2020/12/31 03:16:17;;;;;;;5.53;2.93;;;;;;;-0.02;100.00;100338.16;1790830;77;21323;-71
2020/12/31 03:18:46;;;;;;;6.40;3.00;;;;;;;-0.01;100.00;100335.01;1808468;79;21582;-72
2020/12/31 03:21:15;;;;;;;6.60;3.63;;;;;;;-0.02;100.00;100340.81;1790733;79;21041;-71
2020/12/31 03:23:42;;;;;;;4.87;3.27;;;;;;;-0.03;100.00;100328.94;1802810;78;21143;-72
2020/12/31 03:26:11;;;;;;;3.83;3.23;;;;;;;-0.01;100.00;100329.69;1809729;78;21092;-72
2020/12/31 03:28:38;;;;;;;5.60;3.00;;;;;;;0.02;100.00;100329.95;1803120;78;21041;-71
2020/12/31 03:31:06;;;;;;;4.70;2.40;;;;;;;0.03;100.00;100337.00;1809080;79;21108;-71
2020/12/31 03:33:34;;;;;;;8.87;4.47;;;;;;;0.06;100.00;100303.58;1808521;79;21131;-72
2020/12/31 03:36:02;;;;;;;6.70;3.70;;;;;;;0.02;100.00;100298.93;1792109;79;21561;-71
2020/12/31 03:38:30;;;;;;;8.07;4.03;;;;;;;0.00;100.00;100316.79;1794031;79;21081;-71
2020/12/31 03:40:59;;;;;;;6.43;4.00;;;;;;;-0.02;100.00;100295.61;1783091;79;21021;-71
2020/12/31 03:43:27;;;;;;;5.43;2.87;;;;;;;-0.03;100.00;100319.15;1784573;79;20985;-71
2020/12/31 03:45:55;;;;;;;7.13;4.20;;;;;;;-0.02;100.00;100315.55;1809115;79;21008;-72
2020/12/31 03:48:23;;;;;;;4.40;2.73;;;;;;;0.01;100.00;100323.80;1791254;78;21196;-71
2020/12/31 03:50:50;;;;;;;5.20;2.93;;;;;;;0.01;100.00;100321.14;1802337;78;20985;-72
2020/12/31 03:53:18;;;;;;;7.83;4.00;;;;;;;0.02;100.00;100327.30;1793943;78;21812;-71
2020/12/31 03:55:46;;;;;;;4.33;2.63;;;;;;;0.01;100.00;100321.14;1797453;78;20961;-72
2020/12/31 03:58:13;;;;;;;5.47;2.50;;;;;;;0.01;100.00;100305.67;1783820;79;21713;-72
2020/12/31 04:00:41;;;;;;;4.17;2.87;;;;;;;0.01;100.00;100306.52;1808199;78;21605;-73
2020/12/31 04:03:09;;;;;;;5.13;3.00;;;;;;;0.02;100.00;100318.87;1796669;79;21147;-72
2020/12/31 04:05:36;;;;;;;7.90;3.07;;;;;;;0.01;100.00;100325.13;1779691;78;22259;-72
2020/12/31 04:08:05;;;;;;;5.87;3.27;;;;;;;-0.01;100.00;100310.59;1809252;79;21072;-71
2020/12/31 04:10:32;;;;;;;7.73;3.83;;;;;;;-0.03;100.00;100313.83;1811866;78;21056;-71
2020/12/31 04:13:00;;;;;;;4.63;3.20;;;;;;;-0.05;100.00;100318.39;1785967;79;21179;-71
2020/12/31 04:15:27;;;;;;;5.03;2.87;;;;;;;-0.08;100.00;100314.59;1795756;78;21036;-71
2020/12/31 04:17:55;;;;;;;3.73;2.53;;;;;;;-0.06;100.00;100323.32;1831923;77;21146;-72
2020/12/31 04:20:23;;;;;;;4.63;2.73;;;;;;;-0.06;100.00;100325.98;1816617;77;21772;-71
2020/12/31 04:22:50;;;;;;;6.53;3.80;;;;;;;-0.05;100.00;100317.06;1842550;77;21037;-71
2020/12/31 04:25:18;;;;;;;7.00;3.20;;;;;;;-0.06;100.00;100306.05;1829733;77;21503;-71
2020/12/31 04:27:46;;;;;;;7.67;3.70;;;;;;;-0.06;100.00;100303.38;1831076;77;21029;-71
2020/12/31 04:30:14;;;;;;;4.80;3.10;;;;;;;-0.07;100.00;100307.01;1821972;77;21515;-71
2020/12/31 04:32:41;;;;;;;5.87;3.87;;;;;;;-0.06;100.00;100307.37;1811817;77;21077;-72
2020/12/31 04:35:09;;;;;;;7.37;3.77;;;;;;;-0.06;100.00;100307.86;1823461;77;21598;-72
2020/12/31 04:37:37;;;;;;;5.10;2.87;;;;;;;-0.10;100.00;100291.25;1842458;77;20962;-72
2020/12/31 04:40:05;;;;;;;6.60;2.80;;;;;;;-0.13;100.00;100282.61;1818821;77;20862;-71
2020/12/31 04:42:35;;;;;;;4.00;2.73;;;;;;;-0.18;100.00;100290.02;1828607;77;21037;-72
2020/12/31 04:45:04;;;;;;;3.37;1.83;;;;;;;-0.22;100.00;100294.19;1825875;77;20969;-71
2020/12/31 04:47:45;;;;;;;6.83;3.10;;;;;;;-0.24;100.00;100301.89;1816930;77;21566;-72
2020/12/31 04:50:13;;;;;;;3.97;3.07;;;;;;;-0.24;100.00;100303.22;1802802;79;21285;-71
2020/12/31 04:52:41;;;;;;;5.17;3.87;;;;;;;-0.22;100.00;100306.15;1765900;79;21684;-70
2020/12/31 04:55:08;;;;;;;5.03;3.53;;;;;;;-0.22;100.00;100319.92;1797855;79;21330;-71
2020/12/31 04:57:36;;;;;;;3.87;2.93;;;;;;;-0.25;100.00;100352.87;1779062;79;21688;-71
2020/12/31 05:00:04;;;;;;;4.40;3.00;;;;;;;-0.26;100.00;100343.66;1791512;79;20946;-71
2020/12/31 05:02:32;;;;;;;3.33;2.37;;;;;;;-0.26;100.00;100344.98;1779802;79;21588;-72
2020/12/31 05:05:00;;;;;;;5.43;3.30;;;;;;;-0.24;100.00;100341.75;1791097;79;21008;-71
2020/12/31 05:07:28;;;;;;;4.57;2.67;;;;;;;-0.22;100.00;100343.84;1777218;79;21358;-71
2020/12/31 05:10:11;;;;;;;4.07;2.87;;;;;;;-0.22;100.00;100346.50;1782065;79;21056;-73
2020/12/31 05:12:39;;;;;;;4.87;2.87;;;;;;;-0.24;100.00;100349.73;1775265;80;21611;-72
2020/12/31 05:15:07;;;;;;;3.00;2.33;;;;;;;-0.26;100.00;100335.69;1768701;80;20952;-72
2020/12/31 05:17:35;;;;;;;7.63;3.77;;;;;;;-0.26;100.00;100337.02;1774426;80;21092;-71
2020/12/31 05:20:14;;;;;;;6.53;3.57;;;;;;;-0.25;100.00;100350.66;1774767;80;21462;-72
2020/12/31 05:22:42;;;;;;;5.17;3.60;;;;;;;-0.30;100.00;100354.08;1771135;80;21020;-71
2020/12/31 05:25:10;;;;;;;4.77;3.17;;;;;;;-0.32;100.00;100361.29;1774455;80;21042;-71
2020/12/31 05:27:37;;;;;;;4.47;2.90;;;;;;;-0.34;100.00;100363.19;1769719;80;20921;-71
2020/12/31 05:30:09;;;;;;;5.97;3.77;;;;;;;-0.37;100.00;100358.94;1776163;80;21197;-71
2020/12/31 05:32:39;;;;;;;4.40;2.50;;;;;;;-0.39;100.00;100378.08;1759446;80;21386;-72
2020/12/31 05:35:15;;;;;;;11.23;4.93;;;;;;;-0.39;100.00;100374.09;1764041;80;21003;-72
2020/12/31 05:37:50;;;;;;;5.90;3.47;;;;;;;-0.34;100.00;100372.01;1845252;76;25776;-71
2020/12/31 05:40:18;;;;;;;4.80;3.10;;;;;;;-0.41;100.00;100375.53;1815276;79;21451;-71
2020/12/31 05:42:46;;;;;;;4.03;2.53;;;;;;;-0.41;100.00;100376.86;1815192;79;21355;-71
2020/12/31 05:45:17;;;;;;;4.03;2.10;;;;;;;-0.39;100.00;100368.32;1815140;79;21032;-72
2020/12/31 05:47:49;;;;;;;8.00;3.70;;;;;;;-0.36;100.00;100364.61;1816509;78;21023;-72
2020/12/31 05:50:25;;;;;;;6.57;3.17;;;;;;;-0.36;100.00;100359.30;1834993;78;20926;-71
2020/12/31 05:52:54;;;;;;;8.83;4.70;;;;;;;-0.35;100.00;100366.33;1835035;78;20966;-72
2020/12/31 05:55:24;;;;;;;7.57;4.37;;;;;;;-0.35;100.00;100376.08;1834942;78;21788;-72
2020/12/31 05:57:54;;;;;;;5.37;3.63;;;;;;;-0.35;100.00;100370.77;1834963;77;21020;-71
2020/12/31 06:00:28;;;;;;;7.67;4.53;;;;;;;-0.38;100.00;100359.87;1834950;77;21127;-72
2020/12/31 06:02:59;;;;;;;2.17;2.03;;;;;;;-0.39;100.00;100364.34;1834913;78;20961;-71
2020/12/31 06:05:28;;;;;;;4.67;2.50;;;;;;;-0.36;100.00;100367.75;1834922;78;21016;-73
2020/12/31 06:07:57;;;;;;;4.20;3.03;;;;;;;-0.34;100.00;100376.48;1834745;77;21351;-71
2020/12/31 06:10:30;;;;;;;5.73;3.70;;;;;;;-0.31;100.00;100363.86;1835858;77;20993;-71
2020/12/31 06:13:03;;;;;;;3.83;2.23;;;;;;;-0.29;100.00;100362.44;1860751;77;20910;-71
2020/12/31 06:15:36;;;;;;;6.63;3.30;;;;;;;-0.28;100.00;100358.36;1860687;77;21036;-71
2020/12/31 06:18:06;;;;;;;3.57;2.93;;;;;;;-0.26;100.00;100363.59;1783111;80;21003;-70
2020/12/31 06:20:39;;;;;;;6.27;2.93;;;;;;;-0.27;100.00;100357.88;1783076;79;21445;-71
2020/12/31 06:23:09;;;;;;;6.20;3.30;;;;;;;-0.27;100.00;100355.22;1783002;80;21059;-73
2020/12/31 06:25:47;;;;;;;7.53;4.47;;;;;;;-0.27;100.00;100361.38;1783175;80;20973;-72
2020/12/31 06:28:21;;;;;;;6.10;3.40;;;;;;;-0.25;100.00;100377.23;1783076;80;20988;-72
2020/12/31 06:30:53;;;;;;;7.72;3.85;;;;;;;-0.29;100.00;100370.41;1783208;80;20972;-71
2020/12/31 06:33:34;;;;;;;5.43;3.63;;;;;;;-0.35;100.00;100370.31;1783115;80;21190;-72
2020/12/31 06:36:03;;;;;;;2.67;2.47;;;;;;;-0.35;100.00;100358.36;1738202;81;21112;-72
2020/12/31 06:38:40;;;;;;;6.30;4.00;;;;;;;-0.32;100.00;100365.28;1733891;82;20970;-72
2020/12/31 06:41:41;;;;;;;7.07;3.97;;;;;;;-0.32;100.00;100363.50;1733774;81;21041;-71
2020/12/31 06:44:12;;;;;;;5.50;2.93;;;;;;;-0.29;100.00;100351.81;1733882;82;21030;-72
2020/12/31 06:46:44;;;;;;;7.90;4.50;;;;;;;-0.28;100.00;100361.02;1733881;82;21336;-71
2020/12/31 06:49:12;;;;;;;4.30;3.90;;;;;;;-0.25;100.00;100370.14;1733584;82;21054;-70
2020/12/31 06:51:41;;;;;;;5.63;3.33;;;;;;;-0.21;100.00;100377.45;1736388;81;21875;-75
2020/12/31 06:54:08;;;;;;;3.67;2.37;;;;;;;-0.23;100.00;100366.03;1761884;81;21028;-74
2020/12/31 06:56:48;;;;;;;3.13;2.07;;;;;;;-0.22;100.00;100363.29;1761875;81;21025;-74
2020/12/31 06:59:34;;;;;;;5.03;2.90;;;;;;;-0.20;100.00;100348.09;1761724;81;21361;-73
2020/12/31 07:02:05;;;;;;;2.40;2.20;;;;;;;-0.16;100.00;100372.72;1761775;81;21095;-67
2020/12/31 07:04:40;;;;;;;5.70;2.60;;;;;;;-0.13;100.00;100369.84;1845169;76;25602;-66
2020/12/31 07:07:24;;;;;;;4.60;2.43;;;;;;;-0.14;100.00;100369.48;1815123;79;20964;-69
2020/12/31 07:09:59;;;;;;;2.67;1.57;;;;;;;-0.09;100.00;100377.16;1815274;78;21355;-70
2020/12/31 07:12:37;;;;;;;5.10;3.03;;;;;;;-0.09;100.00;100375.38;1862225;76;20961;-69
2020/12/31 07:15:15;;;;;;;4.50;2.43;;;;;;;0.01;100.00;100380.11;1842548;76;25523;-65
2020/12/31 07:17:47;;;;;;;4.67;2.50;;;;;;;0.02;100.00;100373.83;1747011;82;20946;-72
2020/12/31 07:20:16;;;;;;;4.43;2.40;;;;;;;0.04;100.00;100381.27;1769802;81;21216;-67
2020/12/31 07:22:47;;;;;;;3.57;2.13;;;;;;;0.02;100.00;100377.36;1769511;81;21521;-65
2020/12/31 07:25:17;;;;;;;5.47;3.80;;;;;;;0.02;100.00;100380.02;1769607;81;21036;-66
2020/12/31 07:27:49;;;;;;;4.23;2.63;;;;;;;0.05;100.00;100373.65;1746999;82;21057;-68
2020/12/31 07:30:21;;;;;;;2.70;2.50;;;;;;;0.10;100.00;100375.55;1769831;81;21539;-67
2020/12/31 07:33:09;;;;;;;5.37;3.03;;;;;;;0.15;100.00;100370.31;1769095;81;22359;-68
2020/12/31 07:35:49;;;;;;;8.07;3.63;;;;;;;0.24;100.00;100365.38;1769513;81;21602;-67
2020/12/31 07:38:18;;;;;;;3.17;2.77;;;;;;;0.26;100.00;100367.45;1742917;82;21082;-67
2020/12/31 07:40:53;;;;;;;3.00;2.03;;;;;;;0.31;100.00;100373.34;1769519;81;21009;-75
2020/12/31 07:43:25;;;;;;;5.10;2.83;;;;;;;0.34;100.00;100374.00;1747021;82;21026;-74
2020/12/31 07:46:00;;;;;;;10.93;5.53;;;;;;;0.37;100.00;100368.50;1779048;79;22422;-72
2020/12/31 07:48:29;;;;;;;6.83;4.10;;;;;;;0.39;100.00;100371.06;1779387;80;20978;-73
2020/12/31 07:51:01;;;;;;;3.53;2.73;;;;;;;0.37;100.00;100376.48;1802985;79;20957;-74
2020/12/31 07:53:29;;;;;;;2.75;1.72;;;;;;;0.33;100.00;100372.28;1779578;80;21064;-74
2020/12/31 07:55:57;;;;;;;8.87;2.93;;;;;;;0.35;100.00;100378.84;1802924;79;20973;-74
2020/12/31 08:01:01;;;;;;;6.00;3.00;;;;;;;0.36;100.00;100376.09;1733363;82;21024;-72
2020/12/31 08:03:42;;;;;;;4.67;2.90;;;;;;;0.39;100.00;100361.75;1843087;75;26705;-74
2020/12/31 08:06:11;;;;;;;8.00;4.43;;;;;;;0.35;100.00;100366.88;1805972;79;21031;-72
2020/12/31 08:08:41;;;;;;;3.97;2.27;;;;;;;0.35;100.00;100350.91;1755054;79;22000;-74
2020/12/31 08:11:09;;;;;;;5.63;3.17;;;;;;;0.37;100.00;100364.95;1763995;79;21007;-74
2020/12/31 08:13:37;;;;;;;8.17;3.77;;;;;;;0.43;100.00;100358.42;1815097;79;21053;-72
2020/12/31 08:16:07;;;;;;;5.73;3.37;;;;;;;0.48;100.00;100353.62;1783836;79;20939;-72
2020/12/31 08:18:35;;;;;;;9.10;3.97;;;;;;;0.53;100.00;100354.19;1813518;79;20949;-71
2020/12/31 08:21:07;;;;;;;5.77;3.10;;;;;;;0.59;100.00;100354.30;1743312;79;21259;-72
2020/12/31 08:23:41;;;;;;;4.03;2.60;;;;;;;0.63;100.00;100359.78;1694347;82;21068;-72
2020/12/31 08:26:09;;;;;;;5.17;2.43;;;;;;;0.65;100.00;100354.72;1675229;85;21072;-72
2020/12/31 08:28:37;;;;;;;6.43;3.17;;;;;;;0.66;100.00;100347.13;1673797;84;21083;-73
2020/12/31 08:31:12;;;;;;;3.00;2.13;;;;;;;0.66;100.00;100350.28;1674341;84;20913;-72
2020/12/31 08:33:47;;;;;;;5.97;3.33;;;;;;;0.67;100.00;100350.64;1845227;76;25358;-71
2020/12/31 08:36:24;;;;;;;6.30;3.50;;;;;;;0.66;100.00;100355.60;1784573;79;21035;-72
2020/12/31 08:38:54;;;;;;;3.03;2.20;;;;;;;0.68;100.00;100347.03;1815245;77;21163;-72
2020/12/31 08:41:22;;;;;;;3.20;2.20;;;;;;;0.69;100.00;100338.95;1815220;79;21035;-72
2020/12/31 08:43:50;;;;;;;5.17;2.80;;;;;;;0.70;100.00;100337.98;1815301;79;20992;-71
2020/12/31 08:46:21;;;;;;;5.13;3.40;;;;;;;0.72;100.00;100337.88;1759824;79;21039;-72
2020/12/31 08:48:54;;;;;;;4.43;3.20;;;;;;;0.74;100.00;100331.52;1812426;79;20970;-72
2020/12/31 08:51:22;;;;;;;2.52;2.33;;;;;;;0.79;100.00;100330.36;1807899;79;21383;-73
2020/12/31 08:54:00;;;;;;;4.10;2.30;;;;;;;0.82;100.00;100329.67;1738567;82;21068;-72
2020/12/31 08:56:32;;;;;;;3.43;2.23;;;;;;;0.87;100.00;100326.72;1743525;82;20905;-73
2020/12/31 08:59:11;;;;;;;3.73;3.13;;;;;;;0.92;100.00;100328.11;1761665;81;21573;-73
2020/12/31 09:01:43;;;;;;;2.53;2.27;;;;;;;1.01;100.00;100324.44;1771286;81;21028;-72
2020/12/31 09:04:19;;;;;;;8.57;3.60;;;;;;;1.09;100.00;100319.47;1889882;76;26989;-73
2020/12/31 09:09:28;;;;;;;3.23;2.33;;;;;;;1.13;100.00;100327.61;1845249;76;26808;-73
2020/12/31 09:14:34;;;;;;;10.00;3.80;;;;;;;1.19;100.00;100333.00;1769937;81;21591;-75
2020/12/31 09:17:23;;;;;;;6.30;3.73;;;;;;;1.21;100.00;100326.62;1752080;79;21578;-74
2020/12/31 09:19:53;;;;;;;7.57;4.07;;;;;;;1.27;100.00;100328.86;1739355;82;21053;-74
2020/12/31 09:22:22;;;;;;;8.10;3.97;;;;;;;1.35;100.00;100323.48;1739228;81;21026;-74
2020/12/31 09:24:50;;;;;;;4.83;2.97;;;;;;;1.41;100.00;100317.75;1750709;81;21715;-74
2020/12/31 09:27:25;;;;;;;6.53;3.67;;;;;;;1.41;100.00;100316.42;1743507;81;21668;-74
2020/12/31 09:30:00;;;;;;;6.47;3.77;;;;;;;1.46;100.00;100313.80;1851907;76;26894;-73
2020/12/31 09:32:31;;;;;;;5.13;2.90;;;;;;;1.45;100.00;100324.11;1782711;80;21414;-74
2020/12/31 09:35:03;;;;;;;4.70;2.52;;;;;;;1.46;100.00;100319.63;1855190;77;21794;-74
2020/12/31 09:37:32;;;;;;;4.80;1.83;;;;;;;1.46;100.00;100317.80;1816672;77;21437;-78
2020/12/31 09:40:00;;;;;;;5.80;2.70;;;;;;;1.46;100.00;100312.96;1828557;77;20953;-73
2020/12/31 09:42:28;;;;;;;6.50;3.03;;;;;;;1.46;100.00;100308.97;1822943;77;20946;-73
2020/12/31 09:44:56;;;;;;;7.07;3.20;;;;;;;1.46;100.00;100315.63;1822299;77;21052;-73
2020/12/31 09:47:24;;;;;;;8.53;3.73;;;;;;;1.38;100.00;100306.84;1821478;78;21204;-74
2020/12/31 09:49:52;;;;;;;6.63;3.33;;;;;;;1.35;100.00;100314.16;1865779;76;21592;-73
2020/12/31 09:52:19;;;;;;;4.63;3.07;;;;;;;1.27;100.00;100306.22;1828121;76;20912;-72
2020/12/31 09:54:47;;;;;;;6.37;2.77;;;;;;;1.27;100.00;100297.38;1821271;78;20969;-73
2020/12/31 09:57:15;;;;;;;5.00;3.13;;;;;;;1.28;100.00;100297.77;1821641;77;21586;-74
2020/12/31 09:59:43;;;;;;;5.73;3.50;;;;;;;1.29;100.00;100295.45;1821478;77;21125;-71
2020/12/31 10:02:13;;;;;;;5.97;3.27;;;;;;;1.27;100.00;100284.06;1828382;77;21066;-73
2020/12/31 10:04:40;;;;;;;6.10;2.97;;;;;;;1.26;100.00;100279.22;1842262;77;21483;-73
2020/12/31 10:07:10;;;;;;;2.73;2.43;;;;;;;1.23;100.00;100276.76;1821426;78;20961;-75
2020/12/31 10:09:38;;;;;;;4.57;3.00;;;;;;;1.21;100.00;100275.17;1821348;78;21032;-73
2020/12/31 10:12:06;;;;;;;8.50;3.97;;;;;;;1.21;100.00;100274.69;1821454;78;21199;-72
2020/12/31 10:14:34;;;;;;;5.70;2.87;;;;;;;1.18;100.00;100268.23;1821471;78;21547;-72
2020/12/31 10:17:02;;;;;;;4.50;2.90;;;;;;;1.20;100.00;100264.13;1822681;76;20990;-72
2020/12/31 10:19:30;;;;;;;6.60;3.40;;;;;;;1.23;100.00;100258.59;1829367;76;21005;-72
2020/12/31 10:22:01;;;;;;;7.53;4.13;;;;;;;1.26;100.00;100249.07;1821289;78;21024;-71
2020/12/31 10:24:29;;;;;;;6.70;2.70;;;;;;;1.28;100.00;100248.48;1821964;77;21254;-72
2020/12/31 10:26:57;;;;;;;10.77;5.17;;;;;;;1.29;100.00;100251.05;1827011;77;20963;-72
2020/12/31 10:29:26;;;;;;;6.90;3.80;;;;;;;1.31;100.00;100251.78;1827396;77;20993;-73
2020/12/31 10:31:56;;;;;;;11.37;4.13;;;;;;;1.34;100.00;100242.71;1813044;77;21004;-72
2020/12/31 10:34:25;;;;;;;3.63;2.33;;;;;;;1.38;100.00;100244.22;1828152;77;21011;-71
2020/12/31 10:36:56;;;;;;;5.90;3.03;;;;;;;1.40;100.00;100238.30;1827394;78;22335;-71
2020/12/31 10:39:24;;;;;;;2.90;2.03;;;;;;;1.43;100.00;100247.39;1827245;78;20969;-71
2020/12/31 10:41:52;;;;;;;7.27;3.70;;;;;;;1.45;100.00;100241.50;1826329;78;21660;-71
2020/12/31 10:44:22;;;;;;;5.23;3.00;;;;;;;1.41;100.00;100233.33;1826917;78;20996;-71
2020/12/31 10:46:50;;;;;;;5.93;3.47;;;;;;;1.38;100.00;100230.02;1831585;77;21013;-71
2020/12/31 10:49:23;;;;;;;10.43;4.90;;;;;;;1.35;100.00;100228.44;1832876;77;21350;-71
2020/12/31 10:51:52;;;;;;;8.63;3.87;;;;;;;1.35;100.00;100216.45;1846513;77;21356;-73
2020/12/31 10:54:20;;;;;;;4.17;2.87;;;;;;;1.38;100.00;100218.03;1826560;78;21016;-73
2020/12/31 10:56:48;;;;;;;6.80;3.53;;;;;;;1.40;100.00;100220.11;1826691;78;20878;-73
2020/12/31 10:59:15;;;;;;;6.00;3.73;;;;;;;1.37;100.00;100221.19;1826666;78;20988;-73
2020/12/31 11:01:43;;;;;;;7.67;3.33;;;;;;;1.35;100.00;100215.12;1826700;78;21648;-72
2020/12/31 11:04:11;;;;;;;9.60;4.27;;;;;;;1.35;100.00;100211.58;1826698;78;20937;-73
2020/12/31 11:06:41;;;;;;;6.97;3.70;;;;;;;1.35;100.00;100211.58;1825788;78;20988;-73
2020/12/31 11:09:09;;;;;;;7.00;3.10;;;;;;;1.33;100.00;100220.55;1826608;78;22391;-72
2020/12/31 11:11:38;;;;;;;5.40;3.43;;;;;;;1.33;100.00;100216.55;1826705;78;20913;-73
2020/12/31 11:14:08;;;;;;;7.17;3.03;;;;;;;1.36;100.00;100212.81;1826430;78;21364;-73
2020/12/31 11:16:36;;;;;;;6.73;3.70;;;;;;;1.39;100.00;100220.59;1826549;78;21000;-73
2020/12/31 11:19:06;;;;;;;8.17;3.47;;;;;;;1.42;100.00;100224.88;1826698;78;20973;-72
2020/12/31 11:21:33;;;;;;;10.07;4.40;;;;;;;1.42;100.00;100224.88;1713184;83;21003;-72
2020/12/31 11:24:01;;;;;;;8.13;3.10;;;;;;;1.44;100.00;100226.45;1713407;83;20940;-72
2020/12/31 11:26:29;;;;;;;4.73;3.20;;;;;;;1.43;100.00;100218.56;1713319;83;21819;-72
2020/12/31 11:28:58;;;;;;;3.77;2.33;;;;;;;1.41;100.00;100212.50;1714853;83;21027;-72
2020/12/31 11:31:30;;;;;;;4.73;2.53;;;;;;;1.36;100.00;100214.14;1718594;83;21110;-72
2020/12/31 11:34:00;;;;;;;4.63;2.70;;;;;;;1.35;100.00;100204.47;1718109;83;21019;-72
2020/12/31 11:36:29;;;;;;;4.67;2.70;;;;;;;1.35;100.00;100202.25;1718638;83;21090;-72
2020/12/31 11:38:56;;;;;;;8.63;3.63;;;;;;;1.34;100.00;100205.41;1718498;83;21211;-73
2020/12/31 11:41:24;;;;;;;6.90;3.63;;;;;;;1.33;100.00;100207.23;1717924;83;21193;-73